sensor_id;sensor_type;location;lat;lon;timestamp;temperature;humidity
16038;DHT22;8123;50.906;6.172;2022-07-23T00:00:17;17.10;99.90
16038;DHT22;8123;50.906;6.172;2022-07-23T00:02:43;17.00;99.90
16038;DHT22;8123;50.906;6.172;2022-07-23T00:05:09;17.10;99.90
16038;DHT22;8123;50.906;6.172;2022-07-23T00:07:35;17.20;99.90
16038;DHT22;8123;50.906;6.172;2022-07-23T00:10:01;17.20;99.90
16038;DHT22;8123;50.906;6.172;2022-07-23T00:12:26;17.10;99.90
16038;DHT22;8123;50.906;6.172;2022-07-23T00:14:52;17.10;99.90
16038;DHT22;8123;50.906;6.172;2022-07-23T00:17:18;17.20;99.90
16038;DHT22;8123;50.906;6.172;2022-07-23T00:19:43;17.20;99.90
16038;DHT22;8123;50.906;6.172;2022-07-23T00:22:09;17.20;99.90
16038;DHT22;8123;50.906;6.172;2022-07-23T00:24:35;17.10;99.90
16038;DHT22;8123;50.906;6.172;2022-07-23T00:27:01;17.00;99.90
16038;DHT22;8123;50.906;6.172;2022-07-23T00:29:26;17.00;99.90
16038;DHT22;8123;50.906;6.172;2022-07-23T00:31:52;17.00;99.90
16038;DHT22;8123;50.906;6.172;2022-07-23T00:34:17;17.00;99.90
16038;DHT22;8123;50.906;6.172;2022-07-23T00:36:43;16.90;99.90
16038;DHT22;8123;50.906;6.172;2022-07-23T00:39:09;16.90;99.90
16038;DHT22;8123;50.906;6.172;2022-07-23T00:41:34;16.80;99.90
16038;DHT22;8123;50.906;6.172;2022-07-23T00:46:49;16.60;99.90
16038;DHT22;8123;50.906;6.172;2022-07-23T00:49:18;16.60;99.90
16038;DHT22;8123;50.906;6.172;2022-07-23T00:51:44;16.60;99.90
16038;DHT22;8123;50.906;6.172;2022-07-23T00:54:10;16.60;99.90
16038;DHT22;8123;50.906;6.172;2022-07-23T00:56:36;16.50;99.90
16038;DHT22;8123;50.906;6.172;2022-07-23T00:59:02;16.50;99.90
16038;DHT22;8123;50.906;6.172;2022-07-23T01:01:28;16.50;99.90
16038;DHT22;8123;50.906;6.172;2022-07-23T01:03:53;16.50;99.90
16038;DHT22;8123;50.906;6.172;2022-07-23T01:06:19;16.40;99.90
16038;DHT22;8123;50.906;6.172;2022-07-23T01:08:45;16.40;99.90
16038;DHT22;8123;50.906;6.172;2022-07-23T01:11:11;16.40;99.90
16038;DHT22;8123;50.906;6.172;2022-07-23T01:13:45;16.40;99.90
16038;DHT22;8123;50.906;6.172;2022-07-23T01:16:11;16.30;99.90
16038;DHT22;8123;50.906;6.172;2022-07-23T01:18:36;16.30;99.90
16038;DHT22;8123;50.906;6.172;2022-07-23T01:21:02;16.30;99.90
16038;DHT22;8123;50.906;6.172;2022-07-23T01:23:28;16.30;99.90
16038;DHT22;8123;50.906;6.172;2022-07-23T01:25:54;16.30;99.90
16038;DHT22;8123;50.906;6.172;2022-07-23T01:28:20;16.30;99.90
16038;DHT22;8123;50.906;6.172;2022-07-23T01:30:47;16.20;99.90
16038;DHT22;8123;50.906;6.172;2022-07-23T01:33:13;16.20;99.90
16038;DHT22;8123;50.906;6.172;2022-07-23T01:35:38;16.10;99.90
16038;DHT22;8123;50.906;6.172;2022-07-23T01:38:04;16.10;99.90
16038;DHT22;8123;50.906;6.172;2022-07-23T01:40:30;16.10;99.90
16038;DHT22;8123;50.906;6.172;2022-07-23T01:43:02;16.00;99.90
16038;DHT22;8123;50.906;6.172;2022-07-23T01:45:27;16.10;99.90
16038;DHT22;8123;50.906;6.172;2022-07-23T01:47:53;16.00;99.90
16038;DHT22;8123;50.906;6.172;2022-07-23T01:50:18;16.00;99.90
16038;DHT22;8123;50.906;6.172;2022-07-23T01:52:44;16.00;99.90
16038;DHT22;8123;50.906;6.172;2022-07-23T01:55:10;15.90;99.90
16038;DHT22;8123;50.906;6.172;2022-07-23T01:57:35;15.90;99.90
16038;DHT22;8123;50.906;6.172;2022-07-23T02:00:01;15.90;99.90
16038;DHT22;8123;50.906;6.172;2022-07-23T02:02:27;15.90;99.90
16038;DHT22;8123;50.906;6.172;2022-07-23T02:04:52;16.00;99.90
16038;DHT22;8123;50.906;6.172;2022-07-23T02:07:18;16.00;99.90
16038;DHT22;8123;50.906;6.172;2022-07-23T02:09:44;15.90;99.90
16038;DHT22;8123;50.906;6.172;2022-07-23T02:12:09;15.90;99.90
16038;DHT22;8123;50.906;6.172;2022-07-23T02:14:35;15.90;99.90
16038;DHT22;8123;50.906;6.172;2022-07-23T02:17:00;15.90;99.90
16038;DHT22;8123;50.906;6.172;2022-07-23T02:19:26;15.90;99.90
16038;DHT22;8123;50.906;6.172;2022-07-23T02:21:52;15.90;99.90
16038;DHT22;8123;50.906;6.172;2022-07-23T02:24:19;15.80;99.90
16038;DHT22;8123;50.906;6.172;2022-07-23T02:26:45;15.80;99.90
16038;DHT22;8123;50.906;6.172;2022-07-23T02:29:11;15.80;99.90
16038;DHT22;8123;50.906;6.172;2022-07-23T02:31:37;15.80;99.90
16038;DHT22;8123;50.906;6.172;2022-07-23T02:34:02;15.70;99.90
16038;DHT22;8123;50.906;6.172;2022-07-23T02:36:30;15.70;99.90
16038;DHT22;8123;50.906;6.172;2022-07-23T02:38:55;15.70;99.90
16038;DHT22;8123;50.906;6.172;2022-07-23T02:41:21;15.70;99.90
16038;DHT22;8123;50.906;6.172;2022-07-23T02:43:47;15.60;99.90
16038;DHT22;8123;50.906;6.172;2022-07-23T02:46:12;15.70;99.90
16038;DHT22;8123;50.906;6.172;2022-07-23T02:48:38;15.60;99.90
16038;DHT22;8123;50.906;6.172;2022-07-23T02:51:04;15.60;99.90
16038;DHT22;8123;50.906;6.172;2022-07-23T02:53:29;15.60;99.90
16038;DHT22;8123;50.906;6.172;2022-07-23T02:55:55;15.60;99.90
16038;DHT22;8123;50.906;6.172;2022-07-23T02:58:21;15.50;99.90
16038;DHT22;8123;50.906;6.172;2022-07-23T03:00:46;15.50;99.90
16038;DHT22;8123;50.906;6.172;2022-07-23T03:03:12;15.50;99.90
16038;DHT22;8123;50.906;6.172;2022-07-23T03:05:38;15.50;99.90
16038;DHT22;8123;50.906;6.172;2022-07-23T03:08:04;15.50;99.90
16038;DHT22;8123;50.906;6.172;2022-07-23T03:10:29;15.50;99.90
16038;DHT22;8123;50.906;6.172;2022-07-23T03:12:55;15.40;99.90
16038;DHT22;8123;50.906;6.172;2022-07-23T03:15:21;15.40;99.90
16038;DHT22;8123;50.906;6.172;2022-07-23T03:17:46;15.40;99.90
16038;DHT22;8123;50.906;6.172;2022-07-23T03:20:12;15.30;99.90
16038;DHT22;8123;50.906;6.172;2022-07-23T03:22:38;15.20;99.90
16038;DHT22;8123;50.906;6.172;2022-07-23T03:25:03;15.10;99.90
16038;DHT22;8123;50.906;6.172;2022-07-23T03:27:30;15.00;99.90
16038;DHT22;8123;50.906;6.172;2022-07-23T03:29:57;14.90;99.90
16038;DHT22;8123;50.906;6.172;2022-07-23T03:32:23;14.80;99.90
16038;DHT22;8123;50.906;6.172;2022-07-23T03:34:50;14.80;99.90
16038;DHT22;8123;50.906;6.172;2022-07-23T03:37:18;14.80;99.90
16038;DHT22;8123;50.906;6.172;2022-07-23T03:39:44;14.80;99.90
16038;DHT22;8123;50.906;6.172;2022-07-23T03:42:10;14.70;99.90
16038;DHT22;8123;50.906;6.172;2022-07-23T03:44:36;14.60;99.90
16038;DHT22;8123;50.906;6.172;2022-07-23T03:47:03;14.60;99.90
16038;DHT22;8123;50.906;6.172;2022-07-23T03:49:28;14.60;99.90
16038;DHT22;8123;50.906;6.172;2022-07-23T03:51:54;14.60;99.90
16038;DHT22;8123;50.906;6.172;2022-07-23T03:54:19;14.60;99.90
16038;DHT22;8123;50.906;6.172;2022-07-23T03:56:45;14.60;99.90
16038;DHT22;8123;50.906;6.172;2022-07-23T03:59:11;14.50;99.90
16038;DHT22;8123;50.906;6.172;2022-07-23T04:01:37;14.50;99.90
16038;DHT22;8123;50.906;6.172;2022-07-23T04:04:03;14.50;99.90
16038;DHT22;8123;50.906;6.172;2022-07-23T04:06:29;14.40;99.90
16038;DHT22;8123;50.906;6.172;2022-07-23T04:08:55;14.40;99.90
16038;DHT22;8123;50.906;6.172;2022-07-23T04:11:21;14.40;99.90
16038;DHT22;8123;50.906;6.172;2022-07-23T04:13:46;14.40;99.90
16038;DHT22;8123;50.906;6.172;2022-07-23T04:16:12;14.40;99.90
16038;DHT22;8123;50.906;6.172;2022-07-23T04:18:38;14.40;99.90
16038;DHT22;8123;50.906;6.172;2022-07-23T04:21:03;14.40;99.90
16038;DHT22;8123;50.906;6.172;2022-07-23T04:23:29;14.40;99.90
16038;DHT22;8123;50.906;6.172;2022-07-23T04:25:55;14.40;99.90
16038;DHT22;8123;50.906;6.172;2022-07-23T04:28:20;14.50;99.90
16038;DHT22;8123;50.906;6.172;2022-07-23T04:30:46;14.50;99.90
16038;DHT22;8123;50.906;6.172;2022-07-23T04:33:11;14.60;99.90
16038;DHT22;8123;50.906;6.172;2022-07-23T04:35:37;14.60;99.90
16038;DHT22;8123;50.906;6.172;2022-07-23T04:38:03;14.70;99.90
16038;DHT22;8123;50.906;6.172;2022-07-23T04:40:29;14.80;99.90
16038;DHT22;8123;50.906;6.172;2022-07-23T04:42:55;14.90;99.90
16038;DHT22;8123;50.906;6.172;2022-07-23T04:45:21;15.00;99.90
16038;DHT22;8123;50.906;6.172;2022-07-23T04:47:49;15.00;99.90
16038;DHT22;8123;50.906;6.172;2022-07-23T04:50:14;15.00;99.90
16038;DHT22;8123;50.906;6.172;2022-07-23T04:52:44;15.00;99.90
16038;DHT22;8123;50.906;6.172;2022-07-23T04:55:10;14.80;99.90
16038;DHT22;8123;50.906;6.172;2022-07-23T04:57:35;14.80;99.90
16038;DHT22;8123;50.906;6.172;2022-07-23T05:00:03;14.80;99.90
16038;DHT22;8123;50.906;6.172;2022-07-23T05:02:29;14.80;99.90
16038;DHT22;8123;50.906;6.172;2022-07-23T05:04:54;14.90;99.90
16038;DHT22;8123;50.906;6.172;2022-07-23T05:07:20;14.90;99.90
16038;DHT22;8123;50.906;6.172;2022-07-23T05:09:46;15.00;99.90
16038;DHT22;8123;50.906;6.172;2022-07-23T05:12:11;15.10;99.90
16038;DHT22;8123;50.906;6.172;2022-07-23T05:14:37;15.20;99.90
16038;DHT22;8123;50.906;6.172;2022-07-23T05:17:03;15.30;99.90
16038;DHT22;8123;50.906;6.172;2022-07-23T05:19:28;15.30;99.90
16038;DHT22;8123;50.906;6.172;2022-07-23T05:21:54;15.40;99.90
16038;DHT22;8123;50.906;6.172;2022-07-23T05:24:20;15.40;99.90
16038;DHT22;8123;50.906;6.172;2022-07-23T05:26:45;15.40;99.90
16038;DHT22;8123;50.906;6.172;2022-07-23T05:29:11;15.50;99.90
16038;DHT22;8123;50.906;6.172;2022-07-23T05:31:36;15.60;99.90
16038;DHT22;8123;50.906;6.172;2022-07-23T05:34:02;15.70;99.90
16038;DHT22;8123;50.906;6.172;2022-07-23T05:36:28;15.70;99.90
16038;DHT22;8123;50.906;6.172;2022-07-23T05:38:53;15.80;99.90
16038;DHT22;8123;50.906;6.172;2022-07-23T05:41:19;15.80;99.90
16038;DHT22;8123;50.906;6.172;2022-07-23T05:43:44;15.80;99.90
16038;DHT22;8123;50.906;6.172;2022-07-23T05:46:10;15.80;99.90
16038;DHT22;8123;50.906;6.172;2022-07-23T05:48:36;16.00;99.90
16038;DHT22;8123;50.906;6.172;2022-07-23T05:51:01;16.10;99.90
16038;DHT22;8123;50.906;6.172;2022-07-23T05:53:28;16.20;99.90
16038;DHT22;8123;50.906;6.172;2022-07-23T05:55:54;16.20;99.90
16038;DHT22;8123;50.906;6.172;2022-07-23T05:58:20;16.20;99.90
16038;DHT22;8123;50.906;6.172;2022-07-23T06:00:45;16.30;99.90
16038;DHT22;8123;50.906;6.172;2022-07-23T06:03:11;16.40;99.90
16038;DHT22;8123;50.906;6.172;2022-07-23T06:05:36;16.60;99.90
16038;DHT22;8123;50.906;6.172;2022-07-23T06:08:02;16.50;99.90
16038;DHT22;8123;50.906;6.172;2022-07-23T06:10:28;16.50;99.90
16038;DHT22;8123;50.906;6.172;2022-07-23T06:12:53;16.60;99.90
16038;DHT22;8123;50.906;6.172;2022-07-23T06:15:19;16.80;99.90
16038;DHT22;8123;50.906;6.172;2022-07-23T06:17:45;16.80;99.90
16038;DHT22;8123;50.906;6.172;2022-07-23T06:20:10;16.90;99.90
16038;DHT22;8123;50.906;6.172;2022-07-23T06:22:36;16.90;99.90
16038;DHT22;8123;50.906;6.172;2022-07-23T06:25:02;16.90;99.90
16038;DHT22;8123;50.906;6.172;2022-07-23T06:27:28;16.90;99.90
16038;DHT22;8123;50.906;6.172;2022-07-23T06:29:54;16.80;99.90
16038;DHT22;8123;50.906;6.172;2022-07-23T06:32:20;16.90;99.90
16038;DHT22;8123;50.906;6.172;2022-07-23T06:34:45;16.90;99.90
16038;DHT22;8123;50.906;6.172;2022-07-23T06:37:11;17.00;99.90
16038;DHT22;8123;50.906;6.172;2022-07-23T06:39:37;17.10;99.90
16038;DHT22;8123;50.906;6.172;2022-07-23T06:42:03;17.10;99.90
16038;DHT22;8123;50.906;6.172;2022-07-23T06:44:28;17.10;99.90
16038;DHT22;8123;50.906;6.172;2022-07-23T06:46:54;17.20;99.90
16038;DHT22;8123;50.906;6.172;2022-07-23T06:49:20;17.20;99.90
16038;DHT22;8123;50.906;6.172;2022-07-23T06:51:45;17.30;99.90
16038;DHT22;8123;50.906;6.172;2022-07-23T06:54:11;17.40;99.90
16038;DHT22;8123;50.906;6.172;2022-07-23T06:56:37;17.40;99.90
16038;DHT22;8123;50.906;6.172;2022-07-23T06:59:02;17.50;99.90
16038;DHT22;8123;50.906;6.172;2022-07-23T07:01:28;17.60;99.90
16038;DHT22;8123;50.906;6.172;2022-07-23T07:03:54;17.60;99.90
16038;DHT22;8123;50.906;6.172;2022-07-23T07:06:20;17.70;99.90
16038;DHT22;8123;50.906;6.172;2022-07-23T07:08:45;17.70;99.90
16038;DHT22;8123;50.906;6.172;2022-07-23T07:11:11;17.80;99.90
16038;DHT22;8123;50.906;6.172;2022-07-23T07:13:37;17.90;99.90
16038;DHT22;8123;50.906;6.172;2022-07-23T07:16:03;17.80;99.90
16038;DHT22;8123;50.906;6.172;2022-07-23T07:18:29;17.80;99.90
16038;DHT22;8123;50.906;6.172;2022-07-23T07:20:56;17.90;99.90
16038;DHT22;8123;50.906;6.172;2022-07-23T07:23:21;17.90;99.90
16038;DHT22;8123;50.906;6.172;2022-07-23T07:25:47;17.90;99.90
16038;DHT22;8123;50.906;6.172;2022-07-23T07:28:13;18.00;99.90
16038;DHT22;8123;50.906;6.172;2022-07-23T07:30:38;18.10;99.90
16038;DHT22;8123;50.906;6.172;2022-07-23T07:33:04;18.20;99.90
16038;DHT22;8123;50.906;6.172;2022-07-23T07:35:30;18.30;99.90
16038;DHT22;8123;50.906;6.172;2022-07-23T07:37:58;18.30;99.90
16038;DHT22;8123;50.906;6.172;2022-07-23T07:40:23;18.30;99.90
16038;DHT22;8123;50.906;6.172;2022-07-23T07:42:52;18.30;99.90
16038;DHT22;8123;50.906;6.172;2022-07-23T07:45:20;18.50;99.90
16038;DHT22;8123;50.906;6.172;2022-07-23T07:47:47;18.50;99.90
16038;DHT22;8123;50.906;6.172;2022-07-23T07:50:13;18.60;99.90
16038;DHT22;8123;50.906;6.172;2022-07-23T07:52:39;18.60;99.90
16038;DHT22;8123;50.906;6.172;2022-07-23T07:55:06;18.70;99.90
16038;DHT22;8123;50.906;6.172;2022-07-23T07:57:31;18.70;99.90
16038;DHT22;8123;50.906;6.172;2022-07-23T07:59:57;18.90;99.90
16038;DHT22;8123;50.906;6.172;2022-07-23T08:02:23;19.00;99.90
16038;DHT22;8123;50.906;6.172;2022-07-23T08:04:49;19.00;99.90
16038;DHT22;8123;50.906;6.172;2022-07-23T08:07:15;19.10;99.90
16038;DHT22;8123;50.906;6.172;2022-07-23T08:09:41;19.10;99.90
16038;DHT22;8123;50.906;6.172;2022-07-23T08:12:07;19.10;99.90
16038;DHT22;8123;50.906;6.172;2022-07-23T08:14:33;19.00;99.90
16038;DHT22;8123;50.906;6.172;2022-07-23T08:16:59;19.00;99.90
16038;DHT22;8123;50.906;6.172;2022-07-23T08:19:24;19.00;99.90
16038;DHT22;8123;50.906;6.172;2022-07-23T08:21:50;19.20;99.90
16038;DHT22;8123;50.906;6.172;2022-07-23T08:24:16;19.30;99.90
16038;DHT22;8123;50.906;6.172;2022-07-23T08:26:41;19.40;99.90
16038;DHT22;8123;50.906;6.172;2022-07-23T08:29:07;19.50;99.90
16038;DHT22;8123;50.906;6.172;2022-07-23T08:31:33;19.60;99.90
16038;DHT22;8123;50.906;6.172;2022-07-23T08:33:59;19.70;99.90
16038;DHT22;8123;50.906;6.172;2022-07-23T08:36:25;19.80;99.90
16038;DHT22;8123;50.906;6.172;2022-07-23T08:38:53;19.80;99.90
16038;DHT22;8123;50.906;6.172;2022-07-23T08:41:19;20.00;99.90
16038;DHT22;8123;50.906;6.172;2022-07-23T08:43:46;19.90;99.90
16038;DHT22;8123;50.906;6.172;2022-07-23T08:46:13;19.80;99.90
16038;DHT22;8123;50.906;6.172;2022-07-23T08:48:38;19.90;99.90
16038;DHT22;8123;50.906;6.172;2022-07-23T08:51:05;19.80;99.90
16038;DHT22;8123;50.906;6.172;2022-07-23T08:53:32;19.80;99.90
16038;DHT22;8123;50.906;6.172;2022-07-23T08:56:00;19.90;99.90
16038;DHT22;8123;50.906;6.172;2022-07-23T08:58:29;20.00;99.90
16038;DHT22;8123;50.906;6.172;2022-07-23T09:00:55;20.20;99.90
16038;DHT22;8123;50.906;6.172;2022-07-23T09:03:41;20.10;99.90
16038;DHT22;8123;50.906;6.172;2022-07-23T09:06:10;20.00;99.90
16038;DHT22;8123;50.906;6.172;2022-07-23T09:08:42;19.90;99.90
16038;DHT22;8123;50.906;6.172;2022-07-23T09:11:09;19.90;99.90
16038;DHT22;8123;50.906;6.172;2022-07-23T09:13:40;19.90;99.90
16038;DHT22;8123;50.906;6.172;2022-07-23T09:18:38;19.90;99.90
16038;DHT22;8123;50.906;6.172;2022-07-23T09:21:14;20.00;99.90
16038;DHT22;8123;50.906;6.172;2022-07-23T09:29:20;20.20;99.90
16038;DHT22;8123;50.906;6.172;2022-07-23T09:31:57;20.20;99.90
16038;DHT22;8123;50.906;6.172;2022-07-23T09:36:54;20.40;99.90
16038;DHT22;8123;50.906;6.172;2022-07-23T09:39:29;20.30;99.90
16038;DHT22;8123;50.906;6.172;2022-07-23T09:41:55;20.50;99.90
16038;DHT22;8123;50.906;6.172;2022-07-23T09:44:21;20.50;99.90
16038;DHT22;8123;50.906;6.172;2022-07-23T09:46:49;20.50;99.90
16038;DHT22;8123;50.906;6.172;2022-07-23T09:49:22;20.40;99.90
16038;DHT22;8123;50.906;6.172;2022-07-23T09:51:54;20.40;99.90
16038;DHT22;8123;50.906;6.172;2022-07-23T09:54:39;20.60;99.90
16038;DHT22;8123;50.906;6.172;2022-07-23T09:57:13;20.60;99.90
16038;DHT22;8123;50.906;6.172;2022-07-23T09:59:42;20.60;99.90
16038;DHT22;8123;50.906;6.172;2022-07-23T10:02:10;20.60;99.90
16038;DHT22;8123;50.906;6.172;2022-07-23T10:04:37;20.70;99.90
16038;DHT22;8123;50.906;6.172;2022-07-23T10:07:05;20.70;99.90
16038;DHT22;8123;50.906;6.172;2022-07-23T10:09:33;20.90;99.90
16038;DHT22;8123;50.906;6.172;2022-07-23T10:12:04;20.80;99.90
16038;DHT22;8123;50.906;6.172;2022-07-23T10:14:43;20.90;99.90
16038;DHT22;8123;50.906;6.172;2022-07-23T10:17:09;20.90;99.90
16038;DHT22;8123;50.906;6.172;2022-07-23T10:19:35;20.90;99.90
16038;DHT22;8123;50.906;6.172;2022-07-23T10:22:07;20.90;99.90
16038;DHT22;8123;50.906;6.172;2022-07-23T10:30:02;21.00;99.90
16038;DHT22;8123;50.906;6.172;2022-07-23T10:33:02;21.10;99.90
16038;DHT22;8123;50.906;6.172;2022-07-23T10:36:01;21.10;99.90
16038;DHT22;8123;50.906;6.172;2022-07-23T10:41:03;21.20;99.90
16038;DHT22;8123;50.906;6.172;2022-07-23T10:43:30;21.10;99.90
16038;DHT22;8123;50.906;6.172;2022-07-23T10:46:23;21.10;99.90
16038;DHT22;8123;50.906;6.172;2022-07-23T10:49:27;21.20;99.90
16038;DHT22;8123;50.906;6.172;2022-07-23T10:54:44;21.40;99.90
16038;DHT22;8123;50.906;6.172;2022-07-23T10:57:11;21.60;99.90
16038;DHT22;8123;50.906;6.172;2022-07-23T11:02:39;22.00;99.90
16038;DHT22;8123;50.906;6.172;2022-07-23T11:05:07;21.90;99.90
16038;DHT22;8123;50.906;6.172;2022-07-23T11:07:34;21.80;99.90
16038;DHT22;8123;50.906;6.172;2022-07-23T11:10:00;21.80;99.90
16038;DHT22;8123;50.906;6.172;2022-07-23T11:17:39;21.60;99.90
16038;DHT22;8123;50.906;6.172;2022-07-23T11:20:25;21.70;99.90
16038;DHT22;8123;50.906;6.172;2022-07-23T11:22:58;21.80;99.90
16038;DHT22;8123;50.906;6.172;2022-07-23T11:27:54;21.80;99.90
16038;DHT22;8123;50.906;6.172;2022-07-23T11:30:40;21.90;99.90
16038;DHT22;8123;50.906;6.172;2022-07-23T11:35:41;22.20;99.90
16038;DHT22;8123;50.906;6.172;2022-07-23T11:38:18;22.30;99.90
16038;DHT22;8123;50.906;6.172;2022-07-23T11:40:54;22.40;99.90
16038;DHT22;8123;50.906;6.172;2022-07-23T11:43:23;22.40;99.90
16038;DHT22;8123;50.906;6.172;2022-07-23T11:45:53;22.50;99.90
16038;DHT22;8123;50.906;6.172;2022-07-23T11:48:24;22.60;99.90
16038;DHT22;8123;50.906;6.172;2022-07-23T11:50:51;22.60;99.90
16038;DHT22;8123;50.906;6.172;2022-07-23T11:53:28;22.60;99.90
16038;DHT22;8123;50.906;6.172;2022-07-23T11:55:54;22.50;99.90
16038;DHT22;8123;50.906;6.172;2022-07-23T11:58:27;22.40;99.90
16038;DHT22;8123;50.906;6.172;2022-07-23T12:00:55;22.50;99.90
16038;DHT22;8123;50.906;6.172;2022-07-23T12:03:20;22.60;99.90
16038;DHT22;8123;50.906;6.172;2022-07-23T12:05:46;22.60;99.90
16038;DHT22;8123;50.906;6.172;2022-07-23T12:08:12;22.70;99.90
16038;DHT22;8123;50.906;6.172;2022-07-23T12:10:40;22.70;99.90
16038;DHT22;8123;50.906;6.172;2022-07-23T12:13:16;22.70;99.90
16038;DHT22;8123;50.906;6.172;2022-07-23T12:15:45;22.80;99.90
16038;DHT22;8123;50.906;6.172;2022-07-23T12:18:14;22.90;99.90
16038;DHT22;8123;50.906;6.172;2022-07-23T12:20:48;22.90;99.90
16038;DHT22;8123;50.906;6.172;2022-07-23T12:23:16;23.00;99.90
16038;DHT22;8123;50.906;6.172;2022-07-23T12:25:44;23.00;99.90
16038;DHT22;8123;50.906;6.172;2022-07-23T12:30:53;23.00;99.90
16038;DHT22;8123;50.906;6.172;2022-07-23T12:33:33;23.20;99.90
16038;DHT22;8123;50.906;6.172;2022-07-23T12:36:08;23.10;99.90
16038;DHT22;8123;50.906;6.172;2022-07-23T12:38:40;23.00;99.90
16038;DHT22;8123;50.906;6.172;2022-07-23T12:41:06;23.00;99.90
16038;DHT22;8123;50.906;6.172;2022-07-23T12:43:35;23.00;99.90
16038;DHT22;8123;50.906;6.172;2022-07-23T12:56:11;23.20;99.90
16038;DHT22;8123;50.906;6.172;2022-07-23T12:59:05;23.30;99.90
16038;DHT22;8123;50.906;6.172;2022-07-23T13:01:52;23.40;99.90
16038;DHT22;8123;50.906;6.172;2022-07-23T13:04:21;23.30;99.90
16038;DHT22;8123;50.906;6.172;2022-07-23T13:06:52;23.40;99.90
16038;DHT22;8123;50.906;6.172;2022-07-23T13:09:19;23.50;99.90
16038;DHT22;8123;50.906;6.172;2022-07-23T13:11:47;23.50;99.90
16038;DHT22;8123;50.906;6.172;2022-07-23T13:14:13;23.60;99.90
16038;DHT22;8123;50.906;6.172;2022-07-23T13:16:39;23.70;99.90
16038;DHT22;8123;50.906;6.172;2022-07-23T13:19:06;23.70;99.90
16038;DHT22;8123;50.906;6.172;2022-07-23T13:21:32;23.60;99.90
16038;DHT22;8123;50.906;6.172;2022-07-23T13:23:58;23.60;99.90
16038;DHT22;8123;50.906;6.172;2022-07-23T13:26:25;23.60;99.90
16038;DHT22;8123;50.906;6.172;2022-07-23T13:28:51;23.60;99.90
16038;DHT22;8123;50.906;6.172;2022-07-23T13:31:17;23.60;99.90
16038;DHT22;8123;50.906;6.172;2022-07-23T13:33:43;23.60;99.90
16038;DHT22;8123;50.906;6.172;2022-07-23T13:36:08;23.70;99.90
16038;DHT22;8123;50.906;6.172;2022-07-23T13:38:34;23.90;99.90
16038;DHT22;8123;50.906;6.172;2022-07-23T13:41:00;23.90;99.90
16038;DHT22;8123;50.906;6.172;2022-07-23T13:43:26;24.00;99.90
16038;DHT22;8123;50.906;6.172;2022-07-23T13:45:52;24.00;99.90
16038;DHT22;8123;50.906;6.172;2022-07-23T13:48:19;23.90;99.90
16038;DHT22;8123;50.906;6.172;2022-07-23T13:50:46;23.90;99.90
16038;DHT22;8123;50.906;6.172;2022-07-23T13:53:15;23.90;99.90
16038;DHT22;8123;50.906;6.172;2022-07-23T13:55:42;23.60;99.90
16038;DHT22;8123;50.906;6.172;2022-07-23T13:58:08;23.70;99.90
16038;DHT22;8123;50.906;6.172;2022-07-23T14:00:36;23.70;99.90
16038;DHT22;8123;50.906;6.172;2022-07-23T14:03:02;23.80;99.90
16038;DHT22;8123;50.906;6.172;2022-07-23T14:05:28;23.90;99.90
16038;DHT22;8123;50.906;6.172;2022-07-23T14:07:53;24.00;99.90
16038;DHT22;8123;50.906;6.172;2022-07-23T14:10:21;24.10;99.90
16038;DHT22;8123;50.906;6.172;2022-07-23T14:12:48;24.00;99.90
16038;DHT22;8123;50.906;6.172;2022-07-23T14:15:14;24.00;99.90
16038;DHT22;8123;50.906;6.172;2022-07-23T14:17:41;24.00;99.90
16038;DHT22;8123;50.906;6.172;2022-07-23T14:20:09;24.10;99.90
16038;DHT22;8123;50.906;6.172;2022-07-23T14:22:36;24.20;99.90
16038;DHT22;8123;50.906;6.172;2022-07-23T14:25:04;24.30;99.90
16038;DHT22;8123;50.906;6.172;2022-07-23T14:27:30;24.30;99.90
16038;DHT22;8123;50.906;6.172;2022-07-23T14:29:56;24.40;99.90
16038;DHT22;8123;50.906;6.172;2022-07-23T14:32:22;24.30;99.90
16038;DHT22;8123;50.906;6.172;2022-07-23T14:34:48;24.30;99.90
16038;DHT22;8123;50.906;6.172;2022-07-23T14:37:15;24.40;99.90
16038;DHT22;8123;50.906;6.172;2022-07-23T14:39:41;24.40;99.90
16038;DHT22;8123;50.906;6.172;2022-07-23T14:42:07;24.40;99.90
16038;DHT22;8123;50.906;6.172;2022-07-23T14:44:34;24.40;99.90
16038;DHT22;8123;50.906;6.172;2022-07-23T14:47:00;24.40;99.90
16038;DHT22;8123;50.906;6.172;2022-07-23T14:49:27;24.50;99.90
16038;DHT22;8123;50.906;6.172;2022-07-23T14:51:53;24.50;99.90
16038;DHT22;8123;50.906;6.172;2022-07-23T14:54:18;24.40;99.90
16038;DHT22;8123;50.906;6.172;2022-07-23T14:56:45;24.50;99.90
16038;DHT22;8123;50.906;6.172;2022-07-23T14:59:11;24.60;99.90
16038;DHT22;8123;50.906;6.172;2022-07-23T15:01:36;24.60;99.90
16038;DHT22;8123;50.906;6.172;2022-07-23T15:04:04;24.60;99.90
16038;DHT22;8123;50.906;6.172;2022-07-23T15:06:29;24.70;99.90
16038;DHT22;8123;50.906;6.172;2022-07-23T15:08:55;24.90;99.90
16038;DHT22;8123;50.906;6.172;2022-07-23T15:11:20;25.00;99.90
16038;DHT22;8123;50.906;6.172;2022-07-23T15:13:46;25.10;99.90
16038;DHT22;8123;50.906;6.172;2022-07-23T15:16:12;25.20;99.90
16038;DHT22;8123;50.906;6.172;2022-07-23T15:18:37;25.20;99.90
16038;DHT22;8123;50.906;6.172;2022-07-23T15:21:03;25.20;99.90
16038;DHT22;8123;50.906;6.172;2022-07-23T15:23:29;25.30;99.90
16038;DHT22;8123;50.906;6.172;2022-07-23T15:25:56;25.30;99.90
16038;DHT22;8123;50.906;6.172;2022-07-23T15:28:22;25.30;99.90
16038;DHT22;8123;50.906;6.172;2022-07-23T15:30:49;25.50;99.90
16038;DHT22;8123;50.906;6.172;2022-07-23T15:33:15;25.60;99.90
16038;DHT22;8123;50.906;6.172;2022-07-23T15:35:40;25.50;99.90
16038;DHT22;8123;50.906;6.172;2022-07-23T15:38:06;25.70;99.90
16038;DHT22;8123;50.906;6.172;2022-07-23T15:40:32;26.00;99.90
16038;DHT22;8123;50.906;6.172;2022-07-23T15:42:57;25.80;99.90
16038;DHT22;8123;50.906;6.172;2022-07-23T15:45:23;25.70;99.90
16038;DHT22;8123;50.906;6.172;2022-07-23T15:47:49;25.70;99.90
16038;DHT22;8123;50.906;6.172;2022-07-23T15:50:15;25.90;99.90
16038;DHT22;8123;50.906;6.172;2022-07-23T15:52:41;25.80;99.90
16038;DHT22;8123;50.906;6.172;2022-07-23T15:55:07;25.80;99.90
16038;DHT22;8123;50.906;6.172;2022-07-23T15:57:33;25.80;99.90
16038;DHT22;8123;50.906;6.172;2022-07-23T15:59:59;25.80;99.90
16038;DHT22;8123;50.906;6.172;2022-07-23T16:02:25;25.90;99.90
16038;DHT22;8123;50.906;6.172;2022-07-23T16:04:51;26.20;99.90
16038;DHT22;8123;50.906;6.172;2022-07-23T16:07:19;26.30;99.90
16038;DHT22;8123;50.906;6.172;2022-07-23T16:09:45;26.40;99.90
16038;DHT22;8123;50.906;6.172;2022-07-23T16:12:10;26.60;99.90
16038;DHT22;8123;50.906;6.172;2022-07-23T16:14:37;26.70;99.90
16038;DHT22;8123;50.906;6.172;2022-07-23T16:17:03;26.70;99.90
16038;DHT22;8123;50.906;6.172;2022-07-23T16:19:29;26.90;99.90
16038;DHT22;8123;50.906;6.172;2022-07-23T16:21:54;26.70;99.90
16038;DHT22;8123;50.906;6.172;2022-07-23T16:24:20;26.50;99.90
16038;DHT22;8123;50.906;6.172;2022-07-23T16:26:46;26.40;99.90
16038;DHT22;8123;50.906;6.172;2022-07-23T16:29:12;26.30;99.90
16038;DHT22;8123;50.906;6.172;2022-07-23T16:31:38;26.30;99.90
16038;DHT22;8123;50.906;6.172;2022-07-23T16:34:05;26.20;99.90